sensor_id;sensor_type;location;lat;lon;timestamp;pressure;altitude;pressure_sealevel;temperature;humidity
63190;BME280;49286;44.460;26.114;2022-09-27T00:00:59;99483.97;;;17.14;81.55
63190;BME280;49286;44.460;26.114;2022-09-27T00:03:26;99598.56;;;17.85;82.00
63190;BME280;49286;44.460;26.114;2022-09-27T00:06:06;99489.28;;;17.14;82.90
63190;BME280;49286;44.460;26.114;2022-09-27T00:08:34;99599.88;;;17.75;84.49
63190;BME280;49286;44.460;26.114;2022-09-27T00:11:14;99472.28;;;16.98;85.06
63190;BME280;49286;44.460;26.114;2022-09-27T00:13:41;99558.53;;;17.49;85.14
63190;BME280;49286;44.460;26.114;2022-09-27T00:16:08;99526.47;;;17.33;86.88
63190;BME280;49286;44.460;26.114;2022-09-27T00:18:34;99574.50;;;17.47;89.14
63190;BME280;49286;44.460;26.114;2022-09-27T00:21:05;99448.09;;;16.61;89.73
63190;BME280;49286;44.460;26.114;2022-09-27T00:23:31;99580.84;;;17.43;89.57
63190;BME280;49286;44.460;26.114;2022-09-27T00:25:57;99444.78;;;16.56;90.86
63190;BME280;49286;44.460;26.114;2022-09-27T00:28:24;99586.72;;;17.29;92.06
63190;BME280;49286;44.460;26.114;2022-09-27T00:30:49;99452.59;;;16.37;94.20
63190;BME280;49286;44.460;26.114;2022-09-27T00:33:15;99482.78;;;16.55;92.92
63190;BME280;49286;44.460;26.114;2022-09-27T00:35:41;99577.56;;;17.16;93.82
63190;BME280;49286;44.460;26.114;2022-09-27T00:38:06;99581.16;;;17.14;94.89
63190;BME280;49286;44.460;26.114;2022-09-27T00:40:32;99429.53;;;16.17;95.38
63190;BME280;49286;44.460;26.114;2022-09-27T00:42:58;99439.41;;;16.14;97.65
63190;BME280;49286;44.460;26.114;2022-09-27T00:45:23;99499.28;;;16.40;99.58
63190;BME280;49286;44.460;26.114;2022-09-27T00:47:56;99572.78;;;16.80;100.00
63190;BME280;49286;44.460;26.114;2022-09-27T00:50:31;99587.59;;;16.86;99.91
63190;BME280;49286;44.460;26.114;2022-09-27T00:55:42;99557.28;;;16.70;100.00
63190;BME280;49286;44.460;26.114;2022-09-27T00:58:11;99410.22;;;15.92;99.97
63190;BME280;49286;44.460;26.114;2022-09-27T01:00:44;99520.84;;;16.53;100.00
63190;BME280;49286;44.460;26.114;2022-09-27T01:03:14;99409.44;;;15.90;100.00
63190;BME280;49286;44.460;26.114;2022-09-27T01:05:44;99401.59;;;15.87;100.00
63190;BME280;49286;44.460;26.114;2022-09-27T01:08:10;99507.16;;;16.41;100.00
63190;BME280;49286;44.460;26.114;2022-09-27T01:10:42;99548.03;;;16.58;100.00
63190;BME280;49286;44.460;26.114;2022-09-27T01:13:29;99399.31;;;15.77;100.00
63190;BME280;49286;44.460;26.114;2022-09-27T01:21:57;99528.72;;;16.54;100.00
63190;BME280;49286;44.460;26.114;2022-09-27T01:27:41;99516.66;;;16.47;100.00
63190;BME280;49286;44.460;26.114;2022-09-27T01:33:05;99527.19;;;16.49;100.00
63190;BME280;49286;44.460;26.114;2022-09-27T01:36:12;99527.19;;;16.49;100.00
63190;BME280;49286;44.460;26.114;2022-09-27T01:38:53;99523.38;;;16.56;100.00
63190;BME280;49286;44.460;26.114;2022-09-27T01:43:54;99504.16;;;16.51;100.00
63190;BME280;49286;44.460;26.114;2022-09-27T01:46:27;99361.78;;;15.66;100.00
63190;BME280;49286;44.460;26.114;2022-09-27T01:48:55;99464.53;;;16.25;100.00
63190;BME280;49286;44.460;26.114;2022-09-27T01:51:28;99359.13;;;15.66;100.00
63190;BME280;49286;44.460;26.114;2022-09-27T01:53:57;99488.81;;;16.37;100.00
63190;BME280;49286;44.460;26.114;2022-09-27T01:56:34;99491.28;;;16.41;100.00
63190;BME280;49286;44.460;26.114;2022-09-27T01:59:14;99457.13;;;16.34;100.00
63190;BME280;49286;44.460;26.114;2022-09-27T02:01:45;99317.88;;;15.62;100.00
63190;BME280;49286;44.460;26.114;2022-09-27T02:04:14;99432.59;;;16.30;100.00
63190;BME280;49286;44.460;26.114;2022-09-27T02:06:45;99459.31;;;16.46;100.00
63190;BME280;49286;44.460;26.114;2022-09-27T02:09:17;99306.91;;;15.49;100.00
63190;BME280;49286;44.460;26.114;2022-09-27T02:11:48;99330.84;;;15.68;100.00
63190;BME280;49286;44.460;26.114;2022-09-27T02:14:23;99446.72;;;16.29;100.00
63190;BME280;49286;44.460;26.114;2022-09-27T02:27:58;99437.78;;;16.32;100.00
63190;BME280;49286;44.460;26.114;2022-09-27T02:30:25;99423.06;;;16.24;100.00
63190;BME280;49286;44.460;26.114;2022-09-27T02:32:50;99412.75;;;16.18;100.00
63190;BME280;49286;44.460;26.114;2022-09-27T02:35:42;99439.41;;;16.36;100.00
63190;BME280;49286;44.460;26.114;2022-09-27T02:38:10;99311.41;;;15.71;100.00
63190;BME280;49286;44.460;26.114;2022-09-27T02:40:43;99418.59;;;16.27;100.00
63190;BME280;49286;44.460;26.114;2022-09-27T02:43:09;99356.09;;;15.78;100.00
63190;BME280;49286;44.460;26.114;2022-09-27T02:48:22;99373.81;;;15.98;100.00
63190;BME280;49286;44.460;26.114;2022-09-27T02:51:15;99400.56;;;16.14;100.00
63190;BME280;49286;44.460;26.114;2022-09-27T02:53:52;99450.94;;;16.35;100.00
63190;BME280;49286;44.460;26.114;2022-09-27T02:59:34;99422.75;;;16.10;100.00
63190;BME280;49286;44.460;26.114;2022-09-27T03:07:23;99338.09;;;15.63;100.00
63190;BME280;49286;44.460;26.114;2022-09-27T03:09:51;99458.53;;;16.44;100.00
63190;BME280;49286;44.460;26.114;2022-09-27T03:12:18;99310.13;;;15.57;100.00
63190;BME280;49286;44.460;26.114;2022-09-27T03:14:48;99456.84;;;16.41;100.00
63190;BME280;49286;44.460;26.114;2022-09-27T03:17:14;99316.22;;;15.59;100.00
63190;BME280;49286;44.460;26.114;2022-09-27T03:19:39;99455.13;;;16.40;100.00
63190;BME280;49286;44.460;26.114;2022-09-27T03:22:05;99463.72;;;16.45;100.00
63190;BME280;49286;44.460;26.114;2022-09-27T03:24:31;99315.16;;;15.63;100.00
63190;BME280;49286;44.460;26.114;2022-09-27T03:26:56;99408.13;;;16.23;100.00
63190;BME280;49286;44.460;26.114;2022-09-27T03:29:22;99281.09;;;15.32;100.00
63190;BME280;49286;44.460;26.114;2022-09-27T03:31:47;99278.84;;;15.45;100.00
63190;BME280;49286;44.460;26.114;2022-09-27T03:34:13;99416.75;;;16.29;100.00
63190;BME280;49286;44.460;26.114;2022-09-27T03:36:38;99198.09;;;14.91;100.00
63190;BME280;49286;44.460;26.114;2022-09-27T03:39:04;99416.69;;;16.30;100.00
63190;BME280;49286;44.460;26.114;2022-09-27T03:41:29;99446.91;;;16.24;100.00
63190;BME280;49286;44.460;26.114;2022-09-27T03:43:55;99413.59;;;16.19;100.00
63190;BME280;49286;44.460;26.114;2022-09-27T03:46:22;99288.34;;;15.51;100.00
63190;BME280;49286;44.460;26.114;2022-09-27T03:48:47;99291.00;;;15.51;100.00
63190;BME280;49286;44.460;26.114;2022-09-27T03:51:13;99401.34;;;16.16;100.00
63190;BME280;49286;44.460;26.114;2022-09-27T03:53:38;99431.66;;;16.31;100.00
63190;BME280;49286;44.460;26.114;2022-09-27T03:56:04;99430.78;;;16.31;100.00
63190;BME280;49286;44.460;26.114;2022-09-27T03:58:30;99192.09;;;14.87;100.00
63190;BME280;49286;44.460;26.114;2022-09-27T04:00:55;99426.16;;;16.14;100.00
63190;BME280;49286;44.460;26.114;2022-09-27T04:03:21;99410.91;;;16.20;100.00
63190;BME280;49286;44.460;26.114;2022-09-27T04:05:46;99433.31;;;16.34;100.00
63190;BME280;49286;44.460;26.114;2022-09-27T04:08:12;99379.88;;;16.02;100.00
63190;BME280;49286;44.460;26.114;2022-09-27T04:10:38;99424.41;;;16.13;100.00
63190;BME280;49286;44.460;26.114;2022-09-27T04:13:04;99286.28;;;15.35;100.00
63190;BME280;49286;44.460;26.114;2022-09-27T04:15:29;99435.16;;;16.32;100.00
63190;BME280;49286;44.460;26.114;2022-09-27T04:17:55;99208.41;;;14.98;100.00
63190;BME280;49286;44.460;26.114;2022-09-27T04:20:20;99393.53;;;16.13;100.00
63190;BME280;49286;44.460;26.114;2022-09-27T04:22:46;99423.38;;;16.17;100.00
63190;BME280;49286;44.460;26.114;2022-09-27T04:25:12;99401.50;;;16.13;100.00
63190;BME280;49286;44.460;26.114;2022-09-27T04:27:37;99290.19;;;15.49;100.00
63190;BME280;49286;44.460;26.114;2022-09-27T04:30:05;99406.59;;;16.18;100.00
63190;BME280;49286;44.460;26.114;2022-09-27T04:32:31;99418.53;;;16.28;100.00
63190;BME280;49286;44.460;26.114;2022-09-27T04:34:56;99266.06;;;15.34;100.00
63190;BME280;49286;44.460;26.114;2022-09-27T04:37:40;99389.03;;;16.15;100.00
63190;BME280;49286;44.460;26.114;2022-09-27T04:40:08;99356.84;;;16.04;100.00
63190;BME280;49286;44.460;26.114;2022-09-27T04:42:33;99301.03;;;15.65;100.00
63190;BME280;49286;44.460;26.114;2022-09-27T04:44:59;99421.69;;;16.38;100.00
63190;BME280;49286;44.460;26.114;2022-09-27T04:47:24;99427.59;;;16.44;100.00
63190;BME280;49286;44.460;26.114;2022-09-27T04:49:50;99425.72;;;16.24;100.00
63190;BME280;49286;44.460;26.114;2022-09-27T04:52:15;99405.47;;;16.23;100.00
63190;BME280;49286;44.460;26.114;2022-09-27T04:54:41;99310.63;;;15.67;100.00
63190;BME280;49286;44.460;26.114;2022-09-27T04:57:06;99422.34;;;16.43;100.00
63190;BME280;49286;44.460;26.114;2022-09-27T04:59:32;99396.38;;;16.31;100.00
63190;BME280;49286;44.460;26.114;2022-09-27T05:01:57;99395.34;;;16.35;100.00
63190;BME280;49286;44.460;26.114;2022-09-27T05:04:26;99364.44;;;16.13;100.00
63190;BME280;49286;44.460;26.114;2022-09-27T05:06:52;99411.09;;;16.38;100.00
63190;BME280;49286;44.460;26.114;2022-09-27T05:09:18;99406.66;;;16.38;100.00
63190;BME280;49286;44.460;26.114;2022-09-27T05:11:43;99291.22;;;15.45;100.00
63190;BME280;49286;44.460;26.114;2022-09-27T05:14:09;99387.19;;;16.17;100.00
63190;BME280;49286;44.460;26.114;2022-09-27T05:16:34;99379.69;;;16.29;100.00
63190;BME280;49286;44.460;26.114;2022-09-27T05:19:01;99328.78;;;16.00;100.00
63190;BME280;49286;44.460;26.114;2022-09-27T05:21:27;99242.91;;;15.41;100.00
63190;BME280;49286;44.460;26.114;2022-09-27T05:23:52;99363.25;;;16.20;100.00
63190;BME280;49286;44.460;26.114;2022-09-27T05:26:18;99377.22;;;16.02;100.00
63190;BME280;49286;44.460;26.114;2022-09-27T05:28:45;99376.53;;;15.97;100.00
63190;BME280;49286;44.460;26.114;2022-09-27T05:31:12;99355.41;;;15.73;100.00
63190;BME280;49286;44.460;26.114;2022-09-27T05:33:39;99386.69;;;16.08;100.00
63190;BME280;49286;44.460;26.114;2022-09-27T05:36:05;99367.66;;;15.98;100.00
63190;BME280;49286;44.460;26.114;2022-09-27T05:38:31;99387.91;;;16.22;100.00
63190;BME280;49286;44.460;26.114;2022-09-27T05:40:56;99271.81;;;15.46;100.00
63190;BME280;49286;44.460;26.114;2022-09-27T05:43:22;99357.72;;;16.04;100.00
63190;BME280;49286;44.460;26.114;2022-09-27T05:45:49;99385.78;;;16.31;100.00
63190;BME280;49286;44.460;26.114;2022-09-27T05:48:21;99379.44;;;16.35;100.00
63190;BME280;49286;44.460;26.114;2022-09-27T05:50:47;99367.63;;;16.21;100.00
63190;BME280;49286;44.460;26.114;2022-09-27T05:53:12;99384.66;;;16.36;100.00
63190;BME280;49286;44.460;26.114;2022-09-27T05:55:38;99289.59;;;15.88;100.00
63190;BME280;49286;44.460;26.114;2022-09-27T05:58:06;99379.28;;;16.39;100.00
63190;BME280;49286;44.460;26.114;2022-09-27T06:00:32;99332.72;;;16.12;100.00
63190;BME280;49286;44.460;26.114;2022-09-27T06:03:03;99268.84;;;15.77;100.00
63190;BME280;49286;44.460;26.114;2022-09-27T06:05:34;99388.44;;;16.31;100.00
63190;BME280;49286;44.460;26.114;2022-09-27T06:08:07;99380.13;;;16.40;100.00
63190;BME280;49286;44.460;26.114;2022-09-27T06:10:33;99392.06;;;16.50;100.00
63190;BME280;49286;44.460;26.114;2022-09-27T06:13:07;99271.94;;;15.88;100.00
63190;BME280;49286;44.460;26.114;2022-09-27T06:15:34;99295.00;;;16.07;100.00
63190;BME280;49286;44.460;26.114;2022-09-27T06:18:09;99403.16;;;16.82;100.00
63190;BME280;49286;44.460;26.114;2022-09-27T06:20:37;99298.75;;;16.43;100.00
63190;BME280;49286;44.460;26.114;2022-09-27T06:23:10;99403.34;;;17.18;100.00
63190;BME280;49286;44.460;26.114;2022-09-27T06:25:36;99393.94;;;17.32;100.00
63190;BME280;49286;44.460;26.114;2022-09-27T06:28:03;99264.16;;;17.09;100.00
63190;BME280;49286;44.460;26.114;2022-09-27T06:30:29;99262.63;;;17.23;100.00
63190;BME280;49286;44.460;26.114;2022-09-27T06:32:59;99293.50;;;18.19;95.47
63190;BME280;49286;44.460;26.114;2022-09-27T06:35:26;99386.69;;;18.68;95.04
63190;BME280;49286;44.460;26.114;2022-09-27T06:37:52;99270.94;;;18.10;92.12
63190;BME280;49286;44.460;26.114;2022-09-27T06:40:18;99264.41;;;18.17;94.16
63190;BME280;49286;44.460;26.114;2022-09-27T06:42:44;99399.16;;;19.37;90.99
63190;BME280;49286;44.460;26.114;2022-09-27T06:45:11;99389.72;;;19.14;90.74
63190;BME280;49286;44.460;26.114;2022-09-27T06:47:37;99267.28;;;17.75;95.61
63190;BME280;49286;44.460;26.114;2022-09-27T06:50:04;99370.22;;;19.31;91.39
63190;BME280;49286;44.460;26.114;2022-09-27T06:52:34;99387.25;;;19.44;89.66
63190;BME280;49286;44.460;26.114;2022-09-27T06:55:02;99272.69;;;17.92;94.57
63190;BME280;49286;44.460;26.114;2022-09-27T06:57:28;99266.66;;;17.50;96.22
63190;BME280;49286;44.460;26.114;2022-09-27T07:00:12;99248.50;;;19.03;88.71
63190;BME280;49286;44.460;26.114;2022-09-27T07:02:54;99275.50;;;18.77;90.22
63190;BME280;49286;44.460;26.114;2022-09-27T07:05:27;99383.66;;;18.58;93.29
63190;BME280;49286;44.460;26.114;2022-09-27T07:07:58;99382.59;;;17.67;98.37
63190;BME280;49286;44.460;26.114;2022-09-27T07:10:26;99349.78;;;17.70;98.16
63190;BME280;49286;44.460;26.114;2022-09-27T07:12:52;99394.72;;;17.93;98.34
63190;BME280;49286;44.460;26.114;2022-09-27T07:15:18;99388.41;;;17.96;98.24
63190;BME280;49286;44.460;26.114;2022-09-27T07:17:46;99370.13;;;17.69;98.13
63190;BME280;49286;44.460;26.114;2022-09-27T07:20:12;99377.03;;;17.73;99.27
63190;BME280;49286;44.460;26.114;2022-09-27T07:22:41;99386.25;;;17.85;99.33
63190;BME280;49286;44.460;26.114;2022-09-27T07:25:08;99274.25;;;17.20;99.10
63190;BME280;49286;44.460;26.114;2022-09-27T07:27:33;99350.16;;;17.42;98.64
63190;BME280;49286;44.460;26.114;2022-09-27T07:29:59;99392.16;;;17.71;99.34
63190;BME280;49286;44.460;26.114;2022-09-27T07:32:25;99395.69;;;17.91;98.90
63190;BME280;49286;44.460;26.114;2022-09-27T07:34:51;99322.16;;;17.36;98.27
63190;BME280;49286;44.460;26.114;2022-09-27T07:37:16;99208.88;;;16.61;100.00
63190;BME280;49286;44.460;26.114;2022-09-27T07:39:42;99219.25;;;16.65;100.00
63190;BME280;49286;44.460;26.114;2022-09-27T07:42:11;99353.06;;;17.56;99.27
63190;BME280;49286;44.460;26.114;2022-09-27T07:44:40;99335.41;;;17.36;100.00
63190;BME280;49286;44.460;26.114;2022-09-27T07:47:13;99151.31;;;16.25;100.00
63190;BME280;49286;44.460;26.114;2022-09-27T07:49:39;99338.16;;;17.54;100.00
63190;BME280;49286;44.460;26.114;2022-09-27T07:52:04;99350.22;;;17.61;99.82
63190;BME280;49286;44.460;26.114;2022-09-27T07:54:31;99389.22;;;17.78;98.91
63190;BME280;49286;44.460;26.114;2022-09-27T07:57:00;99396.06;;;17.63;99.40
63190;BME280;49286;44.460;26.114;2022-09-27T07:59:27;99224.84;;;16.80;99.77
63190;BME280;49286;44.460;26.114;2022-09-27T08:01:52;99284.59;;;17.26;98.84
63190;BME280;49286;44.460;26.114;2022-09-27T08:04:17;99369.34;;;17.67;99.75
63190;BME280;49286;44.460;26.114;2022-09-27T08:06:43;99378.19;;;17.68;100.00
63190;BME280;49286;44.460;26.114;2022-09-27T08:09:09;99236.47;;;16.76;100.00
63190;BME280;49286;44.460;26.114;2022-09-27T08:11:35;99357.97;;;17.65;100.00
63190;BME280;49286;44.460;26.114;2022-09-27T08:14:02;99380.50;;;17.95;99.00
63190;BME280;49286;44.460;26.114;2022-09-27T08:16:29;99291.19;;;17.37;98.95
63190;BME280;49286;44.460;26.114;2022-09-27T08:18:57;99384.66;;;17.81;99.21
63190;BME280;49286;44.460;26.114;2022-09-27T08:21:23;99351.97;;;17.81;98.32
63190;BME280;49286;44.460;26.114;2022-09-27T08:23:48;99278.34;;;17.46;97.90
63190;BME280;49286;44.460;26.114;2022-09-27T08:26:16;99381.72;;;18.06;97.69
63190;BME280;49286;44.460;26.114;2022-09-27T08:28:42;99378.78;;;18.12;97.05
63190;BME280;49286;44.460;26.114;2022-09-27T08:31:07;99385.38;;;18.04;96.57
63190;BME280;49286;44.460;26.114;2022-09-27T08:33:33;99277.50;;;17.46;96.95
63190;BME280;49286;44.460;26.114;2022-09-27T08:35:59;99372.81;;;18.26;96.29
63190;BME280;49286;44.460;26.114;2022-09-27T08:38:25;99283.53;;;17.87;95.68
63190;BME280;49286;44.460;26.114;2022-09-27T08:40:56;99403.53;;;18.68;95.00
63190;BME280;49286;44.460;26.114;2022-09-27T08:48:37;99275.28;;;17.93;95.29
63190;BME280;49286;44.460;26.114;2022-09-27T08:51:06;99363.22;;;18.41;94.40
63190;BME280;49286;44.460;26.114;2022-09-27T08:53:43;99278.00;;;17.92;94.09
63190;BME280;49286;44.460;26.114;2022-09-27T08:56:11;99383.69;;;18.39;96.03
63190;BME280;49286;44.460;26.114;2022-09-27T08:58:51;99395.56;;;18.32;95.22
63190;BME280;49286;44.460;26.114;2022-09-27T09:01:22;99289.63;;;17.89;94.87
63190;BME280;49286;44.460;26.114;2022-09-27T09:03:56;99340.94;;;18.26;94.12
63190;BME280;49286;44.460;26.114;2022-09-27T09:06:27;99392.16;;;18.47;94.38
63190;BME280;49286;44.460;26.114;2022-09-27T09:15:06;99366.22;;;18.52;94.38
63190;BME280;49286;44.460;26.114;2022-09-27T09:18:44;99379.56;;;18.51;94.60
63190;BME280;49286;44.460;26.114;2022-09-27T09:26:38;99367.06;;;18.35;94.26
63190;BME280;49286;44.460;26.114;2022-09-27T09:31:55;99357.13;;;18.56;94.24
63190;BME280;49286;44.460;26.114;2022-09-27T09:34:34;99324.56;;;18.53;93.48
63190;BME280;49286;44.460;26.114;2022-09-27T09:37:18;99137.25;;;17.40;93.08
63190;BME280;49286;44.460;26.114;2022-09-27T09:39:50;99226.34;;;17.99;94.25
63190;BME280;49286;44.460;26.114;2022-09-27T09:44:51;99335.34;;;18.67;92.03
63190;BME280;49286;44.460;26.114;2022-09-27T09:47:35;99325.34;;;18.55;91.59
63190;BME280;49286;44.460;26.114;2022-09-27T09:50:13;99307.69;;;18.54;91.91
63190;BME280;49286;44.460;26.114;2022-09-27T09:52:50;99327.88;;;18.75;91.48
63190;BME280;49286;44.460;26.114;2022-09-27T09:55:23;99306.44;;;18.61;91.75
63190;BME280;49286;44.460;26.114;2022-09-27T10:01:24;99330.41;;;18.79;91.12
63190;BME280;49286;44.460;26.114;2022-09-27T10:03:50;99345.53;;;18.94;90.12
63190;BME280;49286;44.460;26.114;2022-09-27T10:06:17;99307.94;;;18.84;88.93
63190;BME280;49286;44.460;26.114;2022-09-27T10:08:43;99222.19;;;18.28;88.97
63190;BME280;49286;44.460;26.114;2022-09-27T10:11:18;99199.25;;;18.27;87.88
63190;BME280;49286;44.460;26.114;2022-09-27T10:13:45;99212.38;;;18.48;87.99
63190;BME280;49286;44.460;26.114;2022-09-27T10:16:13;99319.97;;;19.09;88.09
63190;BME280;49286;44.460;26.114;2022-09-27T10:18:41;99203.78;;;18.43;88.23
63190;BME280;49286;44.460;26.114;2022-09-27T10:21:13;99320.03;;;19.07;87.96
63190;BME280;49286;44.460;26.114;2022-09-27T10:24:12;99317.13;;;19.12;88.36
63190;BME280;49286;44.460;26.114;2022-09-27T10:26:39;99231.03;;;18.46;87.55
63190;BME280;49286;44.460;26.114;2022-09-27T10:31:44;99281.59;;;18.80;88.73
63190;BME280;49286;44.460;26.114;2022-09-27T10:34:29;99313.63;;;19.11;88.21
63190;BME280;49286;44.460;26.114;2022-09-27T10:39:37;99289.94;;;19.07;87.36
63190;BME280;49286;44.460;26.114;2022-09-27T10:45:00;99242.38;;;18.85;85.94
63190;BME280;49286;44.460;26.114;2022-09-27T10:47:43;99204.84;;;18.56;85.63
63190;BME280;49286;44.460;26.114;2022-09-27T10:50:15;99114.94;;;18.15;85.20
63190;BME280;49286;44.460;26.114;2022-09-27T10:52:42;99261.19;;;18.97;85.40
63190;BME280;49286;44.460;26.114;2022-09-27T10:55:23;99275.13;;;19.18;84.97
63190;BME280;49286;44.460;26.114;2022-09-27T10:57:52;99173.09;;;18.70;84.32
63190;BME280;49286;44.460;26.114;2022-09-27T11:00:24;99258.50;;;19.31;82.89
63190;BME280;49286;44.460;26.114;2022-09-27T11:02:55;99169.69;;;18.68;82.08
63190;BME280;49286;44.460;26.114;2022-09-27T11:07:50;99299.63;;;19.57;83.28
63190;BME280;49286;44.460;26.114;2022-09-27T11:13:14;99296.00;;;19.75;81.97
63190;BME280;49286;44.460;26.114;2022-09-27T11:27:06;99279.38;;;20.18;81.65
63190;BME280;49286;44.460;26.114;2022-09-27T11:38:14;99274.69;;;20.07;79.62
63190;BME280;49286;44.460;26.114;2022-09-27T11:46:29;99267.97;;;20.16;78.84
63190;BME280;49286;44.460;26.114;2022-09-27T11:49:21;99262.78;;;20.29;79.59
63190;BME280;49286;44.460;26.114;2022-09-27T11:55:19;99254.81;;;20.43;78.66
63190;BME280;49286;44.460;26.114;2022-09-27T11:57:51;99254.78;;;20.29;77.84
63190;BME280;49286;44.460;26.114;2022-09-27T12:00:23;99226.91;;;20.34;79.95
63190;BME280;49286;44.460;26.114;2022-09-27T12:03:20;99255.75;;;20.58;77.44
63190;BME280;49286;44.460;26.114;2022-09-27T12:06:04;99251.69;;;20.51;77.35
63190;BME280;49286;44.460;26.114;2022-09-27T12:14:15;99247.00;;;20.56;78.81
63190;BME280;49286;44.460;26.114;2022-09-27T12:16:44;99249.13;;;20.65;79.71
63190;BME280;49286;44.460;26.114;2022-09-27T12:19:21;99230.63;;;20.62;77.23
63190;BME280;49286;44.460;26.114;2022-09-27T12:21:48;99131.91;;;20.05;77.06
63190;BME280;49286;44.460;26.114;2022-09-27T12:24:24;99246.34;;;20.66;77.26
63190;BME280;49286;44.460;26.114;2022-09-27T12:26:57;99223.69;;;20.59;77.04
63190;BME280;49286;44.460;26.114;2022-09-27T12:29:29;99243.88;;;20.63;77.42
63190;BME280;49286;44.460;26.114;2022-09-27T12:32:12;99250.91;;;20.64;77.60
63190;BME280;49286;44.460;26.114;2022-09-27T12:35:00;99245.50;;;20.66;77.13
63190;BME280;49286;44.460;26.114;2022-09-27T12:37:34;99222.78;;;20.44;77.31
63190;BME280;49286;44.460;26.114;2022-09-27T12:40:22;99125.41;;;19.94;78.81
63190;BME280;49286;44.460;26.114;2022-09-27T12:42:53;99222.66;;;20.46;78.61
63190;BME280;49286;44.460;26.114;2022-09-27T12:50:59;99211.34;;;20.42;78.42
63190;BME280;49286;44.460;26.114;2022-09-27T13:07:46;99194.91;;;20.20;79.02
63190;BME280;49286;44.460;26.114;2022-09-27T13:10:39;99078.81;;;19.41;79.56
63190;BME280;49286;44.460;26.114;2022-09-27T13:13:11;99067.31;;;19.40;79.82
63190;BME280;49286;44.460;26.114;2022-09-27T13:15:38;99177.34;;;20.01;79.86
63190;BME280;49286;44.460;26.114;2022-09-27T13:18:16;99216.88;;;20.09;79.86
63190;BME280;49286;44.460;26.114;2022-09-27T13:20:51;99197.09;;;19.83;79.78
63190;BME280;49286;44.460;26.114;2022-09-27T13:25:52;99234.34;;;19.83;82.69
63190;BME280;49286;44.460;26.114;2022-09-27T13:30:54;99082.34;;;18.94;84.95
63190;BME280;49286;44.460;26.114;2022-09-27T13:47:03;99176.00;;;19.94;86.96
63190;BME280;49286;44.460;26.114;2022-09-27T13:49:37;99180.47;;;19.94;86.92
63190;BME280;49286;44.460;26.114;2022-09-27T13:54:56;99125.47;;;19.63;86.63
63190;BME280;49286;44.460;26.114;2022-09-27T13:57:50;99173.56;;;20.06;86.77
63190;BME280;49286;44.460;26.114;2022-09-27T14:00:18;99183.63;;;20.00;86.30
63190;BME280;49286;44.460;26.114;2022-09-27T14:02:50;99177.00;;;20.08;86.61
63190;BME280;49286;44.460;26.114;2022-09-27T14:05:24;99149.69;;;20.04;85.25
63190;BME280;49286;44.460;26.114;2022-09-27T14:07:51;99187.31;;;20.14;86.27
63190;BME280;49286;44.460;26.114;2022-09-27T14:10:18;99180.16;;;20.14;84.87
63190;BME280;49286;44.460;26.114;2022-09-27T14:12:47;99184.38;;;20.18;84.78
63190;BME280;49286;44.460;26.114;2022-09-27T14:15:25;99071.66;;;19.57;83.97
63190;BME280;49286;44.460;26.114;2022-09-27T14:17:53;99103.41;;;19.60;84.91
63190;BME280;49286;44.460;26.114;2022-09-27T14:20:38;99153.31;;;20.03;86.39
63190;BME280;49286;44.460;26.114;2022-09-27T14:23:15;99136.28;;;20.06;86.01
63190;BME280;49286;44.460;26.114;2022-09-27T14:25:47;99087.06;;;19.82;83.05
63190;BME280;49286;44.460;26.114;2022-09-27T14:28:25;99053.78;;;19.59;84.46
63190;BME280;49286;44.460;26.114;2022-09-27T14:31:24;99137.88;;;19.94;85.51
63190;BME280;49286;44.460;26.114;2022-09-27T14:33:50;99068.53;;;19.35;86.26
63190;BME280;49286;44.460;26.114;2022-09-27T14:36:31;99187.06;;;20.02;85.49
63190;BME280;49286;44.460;26.114;2022-09-27T14:39:28;99050.38;;;18.95;86.00
63190;BME280;49286;44.460;26.114;2022-09-27T14:41:55;99118.28;;;19.33;86.64
63190;BME280;49286;44.460;26.114;2022-09-27T14:44:21;99087.69;;;19.10;86.27
63190;BME280;49286;44.460;26.114;2022-09-27T14:47:06;99208.66;;;19.82;86.40
63190;BME280;49286;44.460;26.114;2022-09-27T14:49:32;99108.44;;;19.19;87.08
63190;BME280;49286;44.460;26.114;2022-09-27T14:51:58;99228.75;;;19.88;86.20
63190;BME280;49286;44.460;26.114;2022-09-27T14:54:27;99116.94;;;19.26;86.17
63190;BME280;49286;44.460;26.114;2022-09-27T14:56:55;99114.28;;;19.26;86.30
63190;BME280;49286;44.460;26.114;2022-09-27T14:59:28;99240.69;;;19.80;87.15
63190;BME280;49286;44.460;26.114;2022-09-27T15:01:59;99242.34;;;19.83;88.12
63190;BME280;49286;44.460;26.114;2022-09-27T15:04:29;99129.63;;;19.21;86.92
63190;BME280;49286;44.460;26.114;2022-09-27T15:07:00;99133.66;;;18.96;86.88
63190;BME280;49286;44.460;26.114;2022-09-27T15:09:26;99241.38;;;19.68;87.56
63190;BME280;49286;44.460;26.114;2022-09-27T15:11:55;99236.41;;;19.78;86.87
63190;BME280;49286;44.460;26.114;2022-09-27T15:14:23;99130.06;;;19.13;86.15
63190;BME280;49286;44.460;26.114;2022-09-27T15:16:51;99238.78;;;19.82;86.40
63190;BME280;49286;44.460;26.114;2022-09-27T15:19:26;99221.72;;;19.71;86.40
63190;BME280;49286;44.460;26.114;2022-09-27T15:21:52;99095.56;;;18.95;86.79
63190;BME280;49286;44.460;26.114;2022-09-27T15:24:45;99185.91;;;19.60;87.50
63190;BME280;49286;44.460;26.114;2022-09-27T15:27:22;99188.38;;;19.64;87.80
63190;BME280;49286;44.460;26.114;2022-09-27T15:29:57;99211.00;;;19.72;87.30
63190;BME280;49286;44.460;26.114;2022-09-27T15:32:26;99205.34;;;19.78;87.30
63190;BME280;49286;44.460;26.114;2022-09-27T15:34:53;99228.25;;;19.81;87.45
63190;BME280;49286;44.460;26.114;2022-09-27T15:37:35;99210.66;;;19.78;86.96